Time;durP1;ratioP1;P1;durP2;ratioP2;P2;SDS_P1;SDS_P2;PMS_P1;PMS_P2;Temp;Humidity;BMP_temperature;BMP_pressure;BME280_temperature;BME280_humidity;BME280_pressure;Samples;Min_cycle;Max_cycle;Signal;HPM_P1;HPM_P2
2022/11/26 00:00:52;;;;;;;50.03;46.50;;;;;;;4.81;100.00;102156.19;5012536;28;20473;-46
2022/11/26 00:03:20;;;;;;;47.90;44.40;;;;;;;4.78;100.00;102159.94;5012916;28;20465;-43
2022/11/26 00:05:51;;;;;;;48.17;44.23;;;;;;;4.75;100.00;102162.81;5013229;28;20433;-44
2022/11/26 00:08:22;;;;;;;48.63;45.03;;;;;;;4.73;100.00;102163.91;5013099;28;20441;-45
2022/11/26 00:10:52;;;;;;;49.43;45.10;;;;;;;4.71;100.00;102157.91;5012727;28;20453;-48
2022/11/26 00:13:23;;;;;;;50.17;46.20;;;;;;;4.67;100.00;102162.59;5012637;28;20452;-43
2022/11/26 00:15:51;;;;;;;51.73;47.20;;;;;;;4.64;100.00;102168.13;5012800;28;20977;-44
2022/11/26 00:18:22;;;;;;;48.40;44.90;;;;;;;4.62;100.00;102170.06;5013088;28;20854;-45
2022/11/26 00:20:54;;;;;;;49.83;46.43;;;;;;;4.58;100.00;102168.63;5012436;28;20504;-46
2022/11/26 00:23:23;;;;;;;49.53;45.63;;;;;;;4.56;100.00;102172.38;5012266;28;20468;-47
2022/11/26 00:25:54;;;;;;;48.30;44.37;;;;;;;4.53;100.00;102178.75;5012538;28;20760;-46
2022/11/26 00:28:30;;;;;;;47.80;44.53;;;;;;;4.48;100.00;102184.38;5012967;28;20502;-44
2022/11/26 00:30:59;;;;;;;48.20;44.70;;;;;;;4.47;100.00;102184.50;5012590;28;20511;-46
2022/11/26 00:33:28;;;;;;;48.97;45.30;;;;;;;4.46;100.00;102182.81;5012028;28;20460;-43
2022/11/26 00:35:59;;;;;;;50.40;46.60;;;;;;;4.44;100.00;102187.38;5012511;28;20433;-44
2022/11/26 00:38:27;;;;;;;47.37;44.00;;;;;;;4.41;100.00;102185.84;5012487;28;20441;-43
2022/11/26 00:40:55;;;;;;;50.43;45.40;;;;;;;4.40;100.00;102201.78;5012385;28;20870;-43
2022/11/26 00:43:22;;;;;;;49.80;45.83;;;;;;;4.37;100.00;102194.09;5011989;28;20534;-43
2022/11/26 00:45:51;;;;;;;46.17;43.17;;;;;;;4.36;100.00;102197.72;5012489;28;20511;-46
2022/11/26 00:48:19;;;;;;;49.63;46.13;;;;;;;4.32;100.00;102189.22;5012372;28;20441;-43
2022/11/26 00:50:50;;;;;;;46.50;43.70;;;;;;;4.31;100.00;102198.06;5012032;28;20449;-43
2022/11/26 00:53:20;;;;;;;46.00;43.07;;;;;;;4.30;100.00;102208.78;5003298;28;20465;-43
2022/11/26 00:55:50;;;;;;;48.53;45.07;;;;;;;4.28;100.00;102210.69;5010853;28;20436;-45
2022/11/26 00:58:24;;;;;;;48.53;45.20;;;;;;;4.33;100.00;102216.47;5012434;28;20483;-44
2022/11/26 01:03:29;;;;;;;49.67;46.10;;;;;;;4.37;100.00;102210.81;5009954;28;20451;-49
2022/11/26 01:05:58;;;;;;;52.33;47.83;;;;;;;4.36;100.00;102221.50;5011908;28;20464;-49
2022/11/26 01:08:30;;;;;;;50.37;46.80;;;;;;;4.35;100.00;102220.66;5012228;28;20433;-50
2022/11/26 01:10:58;;;;;;;48.70;44.60;;;;;;;4.32;100.00;102217.41;5011678;28;20432;-48
2022/11/26 01:13:25;;;;;;;49.90;46.37;;;;;;;4.26;100.00;102220.53;5011383;28;20469;-46
2022/11/26 01:15:55;;;;;;;51.10;47.53;;;;;;;4.22;100.00;102229.63;5011879;28;20437;-45
2022/11/26 01:18:23;;;;;;;50.60;47.27;;;;;;;4.17;100.00;102231.81;5012062;28;20499;-45
2022/11/26 01:20:52;;;;;;;50.83;47.33;;;;;;;4.13;100.00;102225.06;5011857;28;20554;-47
2022/11/26 01:23:20;;;;;;;49.60;46.23;;;;;;;4.08;100.00;102224.59;5011337;28;20465;-45
2022/11/26 01:25:48;;;;;;;52.07;47.90;;;;;;;4.04;100.00;102229.25;5011792;28;20444;-48
2022/11/26 01:28:19;;;;;;;50.70;47.07;;;;;;;4.00;100.00;102235.75;5014079;28;20437;-46
2022/11/26 01:30:46;;;;;;;47.93;44.90;;;;;;;3.97;100.00;102235.16;5015802;28;20428;-48
2022/11/26 01:33:14;;;;;;;47.70;44.63;;;;;;;3.91;100.00;102233.81;5015232;28;20469;-45
2022/11/26 01:35:41;;;;;;;49.10;45.40;;;;;;;3.88;100.00;102242.78;5015971;28;20429;-46
2022/11/26 01:38:13;;;;;;;49.50;45.80;;;;;;;3.85;100.00;102245.66;5013818;28;20453;-52
2022/11/26 01:40:59;;;;;;;49.67;45.80;;;;;;;3.83;100.00;102238.81;5012782;28;20477;-46
2022/11/26 01:43:29;;;;;;;48.27;45.00;;;;;;;3.81;100.00;102244.22;5012686;28;20469;-48
2022/11/26 01:45:57;;;;;;;49.97;45.60;;;;;;;3.79;100.00;102259.31;5015613;28;20514;-46
2022/11/26 01:48:30;;;;;;;51.47;47.73;;;;;;;3.76;100.00;102264.00;5015494;28;20495;-45
2022/11/26 01:51:02;;;;;;;52.20;48.20;;;;;;;3.75;100.00;102263.16;5014997;28;20425;-46
2022/11/26 01:53:36;;;;;;;56.30;48.00;;;;;;;3.75;100.00;102257.03;5014666;28;20469;-47
2022/11/26 01:56:13;;;;;;;49.30;45.80;;;;;;;3.72;100.00;102263.41;5007860;28;20428;-45
2022/11/26 01:58:46;;;;;;;48.70;44.80;;;;;;;3.70;100.00;102262.66;5015335;28;20436;-46
2022/11/26 02:01:14;;;;;;;47.93;44.53;;;;;;;3.68;100.00;102269.00;5014843;28;20580;-48
2022/11/26 02:03:48;;;;;;;48.13;44.70;;;;;;;3.66;100.00;102271.78;5014616;28;20476;-45
2022/11/26 02:06:20;;;;;;;46.10;43.40;;;;;;;3.64;100.00;102270.22;5015385;28;20431;-45
2022/11/26 02:08:49;;;;;;;50.40;46.07;;;;;;;3.62;100.00;102270.31;5015223;28;20437;-50
2022/11/26 02:11:19;;;;;;;49.80;45.57;;;;;;;3.61;100.00;102275.72;5014868;28;20452;-46
2022/11/26 02:13:50;;;;;;;82.97;48.63;;;;;;;3.59;100.00;102273.16;5014811;28;20441;-47
2022/11/26 02:16:26;;;;;;;51.17;45.80;;;;;;;3.59;100.00;102288.16;5014855;28;20437;-45
2022/11/26 02:19:12;;;;;;;54.73;49.13;;;;;;;3.57;100.00;102290.06;5015134;28;20475;-45
2022/11/26 02:21:51;;;;;;;52.10;47.83;;;;;;;3.54;100.00;102291.16;5014032;28;20476;-45
2022/11/26 02:24:43;;;;;;;61.77;51.20;;;;;;;3.51;100.00;102298.44;5014756;28;20483;-49
2022/11/26 02:27:53;;;;;;;50.43;45.77;;;;;;;3.47;100.00;102296.97;5014913;28;20437;-49
2022/11/26 02:30:22;;;;;;;52.57;47.20;;;;;;;3.45;100.00;102304.16;4989457;28;20429;-48
2022/11/26 02:32:58;;;;;;;128.00;55.43;;;;;;;3.42;100.00;102299.13;5013883;28;20472;-49
2022/11/26 02:35:32;;;;;;;52.27;47.40;;;;;;;3.42;100.00;102302.59;5014692;28;20435;-49
2022/11/26 02:38:05;;;;;;;107.93;58.20;;;;;;;3.42;100.00;102307.03;5014424;28;20437;-50
2022/11/26 02:40:32;;;;;;;81.60;55.83;;;;;;;3.42;100.00;102320.22;5014483;28;20473;-50
2022/11/26 02:43:00;;;;;;;71.27;50.00;;;;;;;3.42;100.00;102320.22;5013861;28;20523;-51
2022/11/26 02:45:33;;;;;;;99.27;51.13;;;;;;;3.43;100.00;102320.13;5014282;28;20934;-49
2022/11/26 02:48:03;;;;;;;51.20;45.90;;;;;;;3.43;100.00;102324.53;5014556;28;20445;-48
2022/11/26 02:50:39;;;;;;;60.47;47.87;;;;;;;3.45;100.00;102328.75;5014702;28;20425;-49
2022/11/26 02:53:08;;;;;;;190.43;61.70;;;;;;;3.45;100.00;102326.09;5013542;28;20475;-49
2022/11/26 02:55:41;;;;;;;145.13;59.53;;;;;;;3.46;100.00;102327.81;5014097;28;20429;-50
2022/11/26 02:58:08;;;;;;;61.67;49.50;;;;;;;3.46;100.00;102325.16;5014360;28;20516;-51
2022/11/26 03:00:41;;;;;;;103.67;53.00;;;;;;;3.44;100.00;102328.84;5014172;28;20469;-50
2022/11/26 03:03:21;;;;;;;51.37;45.93;;;;;;;3.45;100.00;102330.53;5013378;28;20464;-52
2022/11/26 03:05:52;;;;;;;61.50;48.13;;;;;;;3.46;100.00;102329.59;5014061;28;20452;-49
2022/11/26 03:08:21;;;;;;;45.03;42.03;;;;;;;3.46;100.00;102338.34;5013880;28;20831;-49
2022/11/26 03:10:48;;;;;;;50.73;46.00;;;;;;;3.48;100.00;102340.88;5013650;28;20436;-49
2022/11/26 03:13:16;;;;;;;50.07;45.10;;;;;;;3.47;100.00;102344.44;5013350;28;20465;-50
2022/11/26 03:15:45;;;;;;;46.57;42.87;;;;;;;3.47;100.00;102350.56;5013870;28;20437;-46
2022/11/26 03:18:13;;;;;;;70.87;49.70;;;;;;;3.48;100.00;102352.25;5013847;28;20433;-51
2022/11/26 03:20:40;;;;;;;62.90;48.30;;;;;;;3.46;100.00;102348.91;5013649;28;20472;-50
2022/11/26 03:23:08;;;;;;;80.47;48.93;;;;;;;3.47;100.00;102358.47;5013103;28;21059;-48
2022/11/26 03:25:36;;;;;;;98.20;52.87;;;;;;;3.47;100.00;102347.06;5013594;28;20433;-52
2022/11/26 03:28:04;;;;;;;92.87;52.20;;;;;;;3.47;100.00;102358.47;5013852;28;20838;-49
2022/11/26 03:30:32;;;;;;;153.73;54.17;;;;;;;3.45;100.00;102351.63;5013634;28;20852;-50
2022/11/26 03:33:01;;;;;;;119.33;55.27;;;;;;;3.44;100.00;102358.69;5012716;28;20465;-50
2022/11/26 03:35:28;;;;;;;55.20;45.03;;;;;;;3.45;100.00;102362.19;5013372;28;20444;-49
2022/11/26 03:37:56;;;;;;;94.27;50.80;;;;;;;3.42;100.00;102362.41;5013532;28;20471;-47
2022/11/26 03:40:24;;;;;;;65.10;47.37;;;;;;;3.42;100.00;102368.53;5013169;28;20938;-51
2022/11/26 03:42:51;;;;;;;126.53;53.90;;;;;;;3.40;100.00;102359.91;5012713;28;20461;-49
2022/11/26 03:45:19;;;;;;;121.90;54.70;;;;;;;3.38;100.00;102369.69;5013470;28;20429;-52
2022/11/26 03:47:46;;;;;;;59.77;46.80;;;;;;;3.37;100.00;102375.94;5013052;28;20441;-48
2022/11/26 03:50:15;;;;;;;54.37;47.00;;;;;;;3.39;100.00;102373.16;5012738;28;20497;-50
2022/11/26 03:52:43;;;;;;;58.23;45.83;;;;;;;3.39;100.00;102368.75;5012254;28;20516;-49
2022/11/26 03:55:11;;;;;;;91.60;48.47;;;;;;;3.42;100.00;102375.59;5013207;28;20828;-50
2022/11/26 03:57:38;;;;;;;77.73;45.20;;;;;;;3.42;100.00;102378.22;5013038;28;20440;-50
2022/11/26 04:00:08;;;;;;;55.90;46.10;;;;;;;3.45;100.00;102370.94;5012880;28;20429;-50
2022/11/26 04:02:36;;;;;;;71.13;46.33;;;;;;;3.47;100.00;102376.94;5011990;28;20465;-50
2022/11/26 04:05:04;;;;;;;146.87;54.43;;;;;;;3.49;100.00;102374.19;5013050;28;20437;-49
2022/11/26 04:07:33;;;;;;;78.23;47.20;;;;;;;3.48;100.00;102380.41;5013002;28;20850;-55
2022/11/26 04:10:01;;;;;;;65.73;45.30;;;;;;;3.50;100.00;102379.34;5012873;28;20433;-51
2022/11/26 04:12:28;;;;;;;55.00;44.27;;;;;;;3.53;100.00;102375.66;5012069;28;20473;-50
2022/11/26 04:14:56;;;;;;;52.53;44.37;;;;;;;3.53;100.00;102371.22;5012564;28;20795;-49
2022/11/26 04:17:24;;;;;;;53.43;43.30;;;;;;;3.56;100.00;102376.28;5012861;28;20942;-51
2022/11/26 04:19:51;;;;;;;48.43;43.30;;;;;;;3.58;100.00;102386.72;5012620;28;20950;-50
2022/11/26 04:22:19;;;;;;;46.20;41.13;;;;;;;3.60;100.00;102388.28;5012050;28;20469;-49
2022/11/26 04:24:48;;;;;;;79.33;47.47;;;;;;;3.62;100.00;102390.81;5012547;28;20433;-51
2022/11/26 04:27:16;;;;;;;69.63;48.50;;;;;;;3.63;100.00;102395.97;5012401;28;20858;-48
2022/11/26 04:29:43;;;;;;;71.73;48.40;;;;;;;3.62;100.00;102391.66;5012456;28;21093;-50
2022/11/26 04:32:11;;;;;;;50.40;44.97;;;;;;;3.62;100.00;102399.56;5011832;28;20476;-50
2022/11/26 04:34:38;;;;;;;46.97;43.30;;;;;;;3.63;100.00;102395.97;5012461;28;20440;-49
2022/11/26 04:37:06;;;;;;;47.80;43.30;;;;;;;3.63;100.00;102401.25;5012405;28;20440;-49
2022/11/26 04:39:34;;;;;;;45.07;41.90;;;;;;;3.65;100.00;102406.41;5012234;28;20441;-52
2022/11/26 04:42:03;;;;;;;49.20;45.03;;;;;;;3.68;100.00;102417.59;5011400;28;20468;-50
2022/11/26 04:44:30;;;;;;;47.10;43.30;;;;;;;3.70;100.00;102410.41;5012427;28;20433;-54
2022/11/26 04:46:58;;;;;;;48.93;43.70;;;;;;;3.73;100.00;102427.81;5012402;28;20441;-47
2022/11/26 04:49:26;;;;;;;46.37;42.17;;;;;;;3.75;100.00;102426.75;5012292;28;20448;-50
2022/11/26 04:51:53;;;;;;;48.43;43.70;;;;;;;3.78;100.00;102430.97;5011333;28;20472;-49
2022/11/26 04:54:21;;;;;;;45.50;41.90;;;;;;;3.80;100.00;102431.69;5011933;28;20433;-53
2022/11/26 04:56:49;;;;;;;123.40;51.33;;;;;;;3.81;100.00;102431.59;5012301;28;20485;-49
2022/11/26 04:59:18;;;;;;;64.33;45.70;;;;;;;3.85;100.00;102440.13;5012198;28;20429;-51
2022/11/26 05:01:45;;;;;;;63.33;46.30;;;;;;;3.86;100.00;102431.25;5010273;28;21155;-50
2022/11/26 05:04:13;;;;;;;45.70;42.40;;;;;;;3.90;100.00;102436.19;5011832;28;20472;-50
2022/11/26 05:06:41;;;;;;;44.20;41.03;;;;;;;3.95;100.00;102446.41;5012044;28;20777;-49
2022/11/26 05:09:08;;;;;;;51.67;43.97;;;;;;;3.98;100.00;102438.25;5011828;28;20437;-50
2022/11/26 05:11:36;;;;;;;118.43;49.03;;;;;;;4.01;100.00;102442.47;5011122;28;20982;-49
2022/11/26 05:14:04;;;;;;;49.67;44.60;;;;;;;4.05;100.00;102444.78;5012121;28;20819;-51
2022/11/26 05:16:33;;;;;;;102.33;49.07;;;;;;;4.08;100.00;102444.56;5012176;28;20433;-51
2022/11/26 05:19:00;;;;;;;129.83;51.17;;;;;;;4.10;100.00;102450.56;5011881;28;20437;-52
2022/11/26 05:21:28;;;;;;;69.07;45.87;;;;;;;4.13;100.00;102447.69;5010844;28;20878;-52
2022/11/26 05:23:55;;;;;;;53.33;46.10;;;;;;;4.15;100.00;102448.41;5012154;28;20433;-54
2022/11/26 05:26:23;;;;;;;52.97;46.40;;;;;;;4.21;100.00;102457.69;5011951;28;20437;-47
2022/11/26 05:28:51;;;;;;;74.67;50.97;;;;;;;4.23;100.00;102455.78;5011946;28;20432;-53
2022/11/26 05:31:18;;;;;;;51.50;45.93;;;;;;;4.26;100.00;102453.75;5011507;28;20861;-49
2022/11/26 05:33:47;;;;;;;57.60;47.77;;;;;;;4.32;100.00;102463.88;5011548;28;20524;-51
2022/11/26 05:36:15;;;;;;;113.40;53.33;;;;;;;4.36;100.00;102460.00;5011551;28;20429;-50
2022/11/26 05:38:42;;;;;;;71.67;49.83;;;;;;;4.41;100.00;102463.19;5011857;28;20472;-51
2022/11/26 05:41:10;;;;;;;65.63;47.83;;;;;;;4.44;100.00;102468.22;5011421;28;20429;-52
2022/11/26 05:43:38;;;;;;;92.67;53.13;;;;;;;4.45;100.00;102469.91;5011046;28;20472;-52
2022/11/26 05:46:06;;;;;;;95.10;52.60;;;;;;;4.43;100.00;102477.09;5011716;28;20441;-51
2022/11/26 05:48:34;;;;;;;88.83;54.13;;;;;;;4.45;100.00;102469.91;5011429;28;20437;-50
2022/11/26 05:51:03;;;;;;;70.13;51.90;;;;;;;4.50;100.00;102474.00;5011426;28;20429;-48
2022/11/26 05:53:31;;;;;;;66.53;50.30;;;;;;;4.51;100.00;102479.16;5011024;28;20870;-49
2022/11/26 05:55:58;;;;;;;134.87;58.07;;;;;;;4.50;100.00;102474.84;5011544;28;20433;-51
2022/11/26 05:58:26;;;;;;;60.17;52.00;;;;;;;4.53;100.00;102477.25;5011676;28;20484;-50
2022/11/26 06:00:54;;;;;;;148.17;61.60;;;;;;;4.59;100.00;102483.88;5011255;28;20436;-49
2022/11/26 06:03:22;;;;;;;76.13;52.53;;;;;;;4.60;100.00;102483.75;5010871;28;20472;-50
2022/11/26 06:05:49;;;;;;;63.03;54.97;;;;;;;4.64;100.00;102479.09;5011597;28;20428;-51
2022/11/26 06:08:18;;;;;;;59.80;54.73;;;;;;;4.69;100.00;102488.34;5011479;28;20433;-50
2022/11/26 06:10:46;;;;;;;56.83;52.37;;;;;;;4.74;100.00;102480.94;5011143;28;20429;-50
2022/11/26 06:13:14;;;;;;;62.60;56.20;;;;;;;4.79;100.00;102489.34;5011484;28;20464;-51
2022/11/26 06:15:41;;;;;;;92.30;60.00;;;;;;;4.84;100.00;102503.03;5014880;28;20424;-50
2022/11/26 06:18:09;;;;;;;140.90;64.57;;;;;;;4.88;100.00;102506.28;5015056;28;20471;-52
2022/11/26 06:20:37;;;;;;;180.77;70.13;;;;;;;4.86;100.00;102517.00;5015002;28;20433;-48
2022/11/26 06:23:05;;;;;;;133.57;66.30;;;;;;;4.86;100.00;102503.78;5014163;28;20873;-47
2022/11/26 06:25:34;;;;;;;137.33;60.70;;;;;;;4.85;100.00;102510.03;5015066;28;20440;-53
2022/11/26 06:28:01;;;;;;;95.03;57.27;;;;;;;4.85;100.00;102511.81;5014690;28;20469;-50
2022/11/26 06:30:29;;;;;;;134.60;64.93;;;;;;;4.87;100.00;102505.44;5014864;28;20471;-52
2022/11/26 06:32:56;;;;;;;71.33;59.23;;;;;;;4.91;100.00;102500.78;5014102;28;20477;-50
2022/11/26 06:35:24;;;;;;;62.80;56.27;;;;;;;4.94;100.00;102508.47;5014707;28;20965;-53
2022/11/26 06:37:52;;;;;;;65.33;58.03;;;;;;;4.97;100.00;102506.44;5014630;28;20443;-51
2022/11/26 06:40:20;;;;;;;64.10;56.50;;;;;;;5.02;100.00;102516.66;5014520;28;20479;-51
2022/11/26 06:42:50;;;;;;;58.50;54.03;;;;;;;5.09;100.00;102517.03;5013611;28;20473;-51
2022/11/26 06:45:18;;;;;;;61.80;56.30;;;;;;;5.12;100.00;102522.94;5014801;28;20421;-50
2022/11/26 06:47:46;;;;;;;59.47;54.60;;;;;;;5.17;100.00;102523.41;5014297;28;20957;-49
2022/11/26 06:50:14;;;;;;;65.20;57.53;;;;;;;5.21;100.00;102537.25;5014399;28;20433;-48
2022/11/26 06:52:41;;;;;;;62.07;56.70;;;;;;;5.25;100.00;102531.63;5013510;28;20878;-51
2022/11/26 06:55:10;;;;;;;67.30;60.63;;;;;;;5.29;100.00;102532.19;5014356;28;20433;-48
2022/11/26 06:57:37;;;;;;;58.97;54.47;;;;;;;5.33;100.00;102536.28;5014319;28;20533;-50
2022/11/26 07:00:08;;;;;;;61.37;56.77;;;;;;;5.36;100.00;102538.72;5014349;28;20436;-46
2022/11/26 07:05:07;;;;;;;60.80;55.97;;;;;;;5.43;100.00;102532.00;4988170;28;20963;-44
2022/11/26 07:07:37;;;;;;;61.07;56.17;;;;;;;5.48;100.00;102532.47;4991128;28;20801;-48
2022/11/26 07:10:05;;;;;;;61.40;55.93;;;;;;;5.52;100.00;102532.13;4995078;28;20437;-45
2022/11/26 07:12:33;;;;;;;59.27;54.53;;;;;;;5.57;100.00;102534.38;4994200;28;20867;-44
2022/11/26 07:15:01;;;;;;;59.80;54.70;;;;;;;5.63;100.00;102552.44;4994785;28;20441;-45
2022/11/26 07:17:30;;;;;;;64.90;59.03;;;;;;;5.67;100.00;102553.88;4994381;28;20442;-46
2022/11/26 07:19:57;;;;;;;62.50;56.87;;;;;;;5.71;100.00;102557.94;4994211;28;20437;-44
2022/11/26 07:22:25;;;;;;;61.70;56.07;;;;;;;5.75;100.00;102551.47;4993430;28;20465;-45
2022/11/26 07:24:52;;;;;;;65.10;59.10;;;;;;;5.79;100.00;102557.38;4993171;28;20464;-45
2022/11/26 07:27:20;;;;;;;63.97;57.67;;;;;;;5.84;100.00;102555.19;4994069;28;20468;-48
2022/11/26 07:29:47;;;;;;;62.20;56.80;;;;;;;5.85;100.00;102557.75;4994112;28;20438;-44
2022/11/26 07:32:15;;;;;;;65.80;59.80;;;;;;;5.89;100.00;102559.19;4993264;28;20470;-44
2022/11/26 07:34:44;;;;;;;64.67;54.57;;;;;;;5.93;100.00;102570.38;4993871;28;20458;-45
2022/11/26 07:37:11;;;;;;;66.07;57.37;;;;;;;5.95;100.00;102574.56;4993831;28;20450;-44
2022/11/26 07:39:39;;;;;;;66.80;60.07;;;;;;;5.99;100.00;102570.72;4987634;28;20482;-45
2022/11/26 07:42:07;;;;;;;65.70;58.77;;;;;;;6.02;100.00;102577.59;4973777;28;20470;-45
2022/11/26 07:44:34;;;;;;;62.17;56.73;;;;;;;6.04;100.00;102573.84;4974274;28;20487;-46
2022/11/26 07:47:03;;;;;;;63.10;56.60;;;;;;;6.07;100.00;102578.06;4974313;28;20439;-44
2022/11/26 07:49:30;;;;;;;61.77;56.07;;;;;;;6.10;100.00;102580.47;4974099;28;20434;-46
2022/11/26 07:51:59;;;;;;;63.87;57.80;;;;;;;6.12;100.00;102583.84;4973585;28;20467;-45
2022/11/26 07:54:27;;;;;;;64.83;58.27;;;;;;;6.16;100.00;102587.06;4974005;28;20446;-47
2022/11/26 07:56:55;;;;;;;63.90;55.47;;;;;;;6.19;100.00;102584.16;4974017;28;20438;-45
2022/11/26 07:59:22;;;;;;;64.87;54.33;;;;;;;6.22;100.00;102578.63;4973895;28;20462;-48
2022/11/26 08:01:50;;;;;;;62.20;55.77;;;;;;;6.26;100.00;102590.66;4973156;28;20470;-45
2022/11/26 08:04:18;;;;;;;63.07;56.97;;;;;;;6.28;100.00;102586.94;4973615;28;20522;-48
2022/11/26 08:06:45;;;;;;;64.50;57.63;;;;;;;6.32;100.00;102588.38;4974171;28;20439;-49
2022/11/26 08:09:14;;;;;;;68.10;58.80;;;;;;;6.35;100.00;102584.63;4973743;28;20446;-47
2022/11/26 08:11:42;;;;;;;66.13;59.60;;;;;;;6.38;100.00;102590.53;4973248;28;20462;-46
2022/11/26 08:14:11;;;;;;;66.77;60.27;;;;;;;6.42;100.00;102596.44;4973854;28;20454;-45
2022/11/26 08:16:39;;;;;;;66.93;60.43;;;;;;;6.46;100.00;102587.25;4973638;28;20786;-48
2022/11/26 08:19:11;;;;;;;70.73;62.70;;;;;;;6.49;100.00;102594.94;4973883;28;20446;-48
2022/11/26 08:21:39;;;;;;;79.43;63.10;;;;;;;6.50;100.00;102599.28;4972925;28;20949;-45
2022/11/26 08:24:11;;;;;;;65.90;59.97;;;;;;;6.52;100.00;102597.34;4973584;28;20478;-44
2022/11/26 08:26:40;;;;;;;68.67;61.43;;;;;;;6.52;100.00;102607.94;4973531;28;20431;-45
2022/11/26 08:29:11;;;;;;;68.27;62.00;;;;;;;6.52;100.00;102622.03;4973441;28;20434;-44
2022/11/26 08:31:39;;;;;;;67.60;61.13;;;;;;;6.55;100.00;102616.50;4972945;28;20538;-44
2022/11/26 08:34:14;;;;;;;71.93;64.57;;;;;;;6.63;100.00;102611.41;4973690;28;20450;-45
2022/11/26 08:36:42;;;;;;;71.17;63.77;;;;;;;6.72;100.00;102620.41;4973610;28;20431;-44
2022/11/26 08:39:12;;;;;;;73.43;66.63;;;;;;;6.77;100.00;102620.88;4973423;28;20493;-47
2022/11/26 08:41:41;;;;;;;77.77;68.57;;;;;;;6.84;100.00;102622.03;4972630;28;20439;-44
2022/11/26 08:44:15;;;;;;;70.33;64.40;;;;;;;6.92;100.00;102626.72;4973246;28;20482;-47
2022/11/26 08:46:42;;;;;;;80.77;72.90;;;;;;;7.00;100.00;102625.13;4973377;28;20434;-44
2022/11/26 08:49:13;;;;;;;73.50;66.60;;;;;;;7.03;100.00;102624.88;4973267;28;20550;-46
2022/11/26 08:51:42;;;;;;;79.80;71.33;;;;;;;7.12;100.00;102625.91;4969310;28;20455;-45
2022/11/26 08:54:10;;;;;;;75.80;67.53;;;;;;;7.18;100.00;102631.53;4972849;28;20454;-45
2022/11/26 08:56:37;;;;;;;74.90;68.70;;;;;;;7.24;100.00;102625.72;4973384;28;20434;-44
2022/11/26 08:59:06;;;;;;;74.83;67.00;;;;;;;7.29;100.00;102622.66;4973026;28;20439;-46
2022/11/26 09:01:34;;;;;;;74.53;66.97;;;;;;;7.30;100.00;102627.00;4972497;28;20439;-44
2022/11/26 09:04:03;;;;;;;72.80;66.83;;;;;;;7.33;100.00;102636.53;4972946;28;20852;-45
2022/11/26 09:06:32;;;;;;;74.13;68.23;;;;;;;7.30;100.00;102628.81;4972870;28;20518;-47
2022/11/26 09:09:13;;;;;;;77.73;70.30;;;;;;;7.26;100.00;102633.53;4973030;28;20430;-44
2022/11/26 09:11:44;;;;;;;76.73;70.73;;;;;;;7.25;100.00;102634.53;4972445;28;20462;-44
2022/11/26 09:14:15;;;;;;;77.50;71.37;;;;;;;7.21;100.00;102636.59;4972921;28;20450;-44
2022/11/26 09:16:42;;;;;;;79.53;72.70;;;;;;;7.16;100.00;102638.81;4972894;28;20485;-47
2022/11/26 09:19:12;;;;;;;80.57;73.60;;;;;;;7.13;100.00;102636.41;4972795;28;20999;-44
2022/11/26 09:21:40;;;;;;;82.77;75.60;;;;;;;7.15;100.00;102646.88;4972163;28;20513;-46
2022/11/26 09:24:08;;;;;;;78.00;71.50;;;;;;;7.18;100.00;102651.94;4972766;28;20821;-45
2022/11/26 09:26:36;;;;;;;78.20;72.33;;;;;;;7.27;100.00;102650.31;4972866;28;20435;-46
2022/11/26 09:29:04;;;;;;;81.23;74.90;;;;;;;7.39;100.00;102654.59;4972667;28;20423;-45
2022/11/26 09:31:33;;;;;;;80.10;73.80;;;;;;;7.61;100.00;102651.81;4971973;28;20439;-46
2022/11/26 09:34:02;;;;;;;74.33;68.63;;;;;;;7.85;100.00;102655.03;4972616;28;20983;-44
2022/11/26 09:36:29;;;;;;;76.57;69.87;;;;;;;7.94;100.00;102659.53;4972818;28;20939;-45
2022/11/26 09:38:59;;;;;;;80.27;73.70;;;;;;;7.99;100.00;102661.78;4972593;28;21014;-48
2022/11/26 09:41:40;;;;;;;80.90;74.23;;;;;;;8.06;100.00;102674.41;4972016;28;20438;-44
2022/11/26 09:44:19;;;;;;;80.27;73.60;;;;;;;8.11;100.00;102663.38;4972782;28;20486;-48
2022/11/26 09:46:58;;;;;;;78.50;72.70;;;;;;;8.08;100.00;102668.97;4972846;28;20856;-46
2022/11/26 09:49:53;;;;;;;82.37;76.17;;;;;;;8.15;100.00;102662.97;4975526;28;20494;-46
2022/11/26 09:52:24;;;;;;;78.10;72.77;;;;;;;8.17;100.00;102676.13;4972438;28;20463;-44
2022/11/26 09:54:59;;;;;;;79.67;74.03;;;;;;;8.24;100.00;102674.63;4976297;28;20983;-44
2022/11/26 09:57:31;;;;;;;78.03;73.23;;;;;;;8.26;100.00;102670.00;4976388;28;20832;-44
2022/11/26 09:59:59;;;;;;;75.77;71.13;;;;;;;8.33;100.00;102677.31;4976383;28;20430;-44
2022/11/26 10:02:28;;;;;;;74.13;69.47;;;;;;;8.42;100.00;102669.53;4975598;28;20470;-48
2022/11/26 10:04:55;;;;;;;78.90;73.70;;;;;;;8.49;100.00;102676.81;4975832;28;20992;-44
2022/11/26 10:07:35;;;;;;;84.13;77.80;;;;;;;8.57;100.00;102679.63;4976247;28;20828;-44
2022/11/26 10:10:12;;;;;;;80.13;75.50;;;;;;;8.58;100.00;102672.50;4976304;28;20865;-45
2022/11/26 10:12:51;;;;;;;74.33;69.77;;;;;;;8.74;100.00;102680.81;4975341;28;20470;-45
2022/11/26 10:15:45;;;;;;;76.13;71.47;;;;;;;8.76;100.00;102678.84;4975877;28;20956;-45
2022/11/26 10:18:21;;;;;;;77.27;71.90;;;;;;;8.65;100.00;102678.97;4976029;28;20438;-44
2022/11/26 10:21:06;;;;;;;79.63;74.50;;;;;;;8.54;100.00;102671.91;4975322;28;20442;-45
2022/11/26 10:23:40;;;;;;;80.33;75.67;;;;;;;8.48;100.00;102675.16;4972541;28;20483;-44
2022/11/26 10:26:13;;;;;;;79.20;74.83;;;;;;;8.45;100.00;102679.91;4973517;28;20426;-45
2022/11/26 10:28:45;;;;;;;86.60;81.10;;;;;;;8.38;100.00;102676.94;4975652;28;20945;-43
2022/11/26 10:31:20;;;;;;;87.70;82.80;;;;;;;8.30;100.00;102674.94;4975376;28;20449;-43
2022/11/26 10:33:55;;;;;;;93.50;87.43;;;;;;;8.23;100.00;102681.75;4974071;28;20450;-43
2022/11/26 10:36:26;;;;;;;91.33;86.40;;;;;;;8.17;100.00;102686.75;4985205;28;20493;-43
2022/11/26 10:38:55;;;;;;;92.43;86.90;;;;;;;8.15;100.00;102686.06;4993230;28;20480;-45
2022/11/26 10:41:26;;;;;;;95.33;89.47;;;;;;;8.18;100.00;102685.78;4982804;28;20450;-44
2022/11/26 10:43:53;;;;;;;95.00;89.20;;;;;;;8.22;100.00;102679.22;4978792;28;20477;-44
2022/11/26 10:46:33;;;;;;;97.40;91.77;;;;;;;8.29;100.00;102696.34;4992683;28;20438;-44
2022/11/26 10:49:23;;;;;;;100.70;95.00;;;;;;;8.35;100.00;102701.13;4985169;28;20419;-44
2022/11/26 10:51:53;;;;;;;101.63;95.77;;;;;;;8.41;100.00;102691.78;4971955;28;20466;-44
2022/11/26 10:54:26;;;;;;;95.90;90.90;;;;;;;8.46;100.00;102698.38;4975978;28;20498;-44
2022/11/26 10:56:54;;;;;;;94.40;89.83;;;;;;;8.54;100.00;102690.53;4974913;28;20493;-45
2022/11/26 10:59:26;;;;;;;89.40;84.63;;;;;;;8.64;100.00;102685.25;4978275;28;21114;-44
2022/11/26 11:01:55;;;;;;;92.50;87.20;;;;;;;8.67;100.00;102684.97;4978606;28;20462;-44
2022/11/26 11:04:30;;;;;;;84.73;80.43;;;;;;;8.71;100.00;102691.72;4971793;28;20479;-45
2022/11/26 11:06:58;;;;;;;84.10;79.33;;;;;;;8.80;100.00;102691.75;4968984;28;20466;-46
2022/11/26 11:09:32;;;;;;;85.90;81.23;;;;;;;8.79;100.00;102695.38;4980656;28;20438;-45
2022/11/26 11:12:21;;;;;;;79.93;74.93;;;;;;;8.87;100.00;102692.00;4982568;28;20462;-48
2022/11/26 11:14:50;;;;;;;85.50;79.43;;;;;;;8.88;100.00;102697.19;4975475;28;20451;-45
2022/11/26 11:17:34;;;;;;;83.60;78.50;;;;;;;8.90;100.00;102702.38;4988830;28;20438;-44
2022/11/26 11:20:25;;;;;;;81.27;75.87;;;;;;;8.83;100.00;102695.94;4971233;28;20946;-45
2022/11/26 11:23:03;;;;;;;111.07;105.40;;;;;;;8.75;100.00;102685.97;4989804;28;20477;-44
2022/11/26 11:25:33;;;;;;;105.40;99.87;;;;;;;8.70;100.00;102698.84;4987822;28;20473;-47
2022/11/26 11:28:04;;;;;;;82.80;77.30;;;;;;;8.62;100.00;102692.53;4979063;28;20434;-46